Tropical Cyclones
[Index]
Main Index Home Page Stock Weather Photos Extreme Storms Discussion Storm News and Storm Chasing Reports Tropical Cyclones / Hurricanes / Typhoons Weather Data and Links Wild Fires / Bushfires Weather Observation Techniques Weather Picture Catalogue Tornado Pictures and Reports Stock Video Footage and DVDs for sale
Season 1998-1999 Tropical Cyclone PETE Track Map
Season 1998-1999 Summaries: [BoM-AU] [JTWC-AU] [JTWC-SIO] [JTWC-SPAC] [JTWC-SH]
<<- Previous TC | JTWC 1998-1999 Season | Next TC ->>

click for intensity scale information  Lat/long Grid: Show Hide

 Date Labels: Show Hide

Joint Typhoon Warning Centre Cyclone Data

Name: PETE

21 Jan 1999 12:00 UTC to 29 Jan 1999 00:00 UTC

    date/time    lat    long     hPa   cat  kts
1999-01-21 12   14.5   150.2                  30          
1999-01-21 18   14.9   151.2                  30          
1999-01-22 00   15.5   152.0                  30          
1999-01-22 06   16.4   152.8                  35          
1999-01-22 12   17.3   153.7                  35          
1999-01-22 18   18.3   154.6            1     40          
1999-01-23 00   19.6   155.7            1     45          
1999-01-23 06   21.0   157.0            1     45          
1999-01-23 12   22.2   158.6            1     45          
1999-01-23 18   23.1   159.8            2     55          
1999-01-24 00   23.9   161.0            2     55          
1999-01-24 06   24.4   162.4            2     55          
1999-01-24 12   24.7   163.9            1     50          
1999-01-24 18   24.7   164.5            1     45          
1999-01-25 00   24.7   165.1            1     45          
1999-01-25 06   24.7   165.7            1     40          
1999-01-25 12   24.7   166.4            1     40          
1999-01-25 18   24.7   167.2                  35          
1999-01-26 00   24.7   167.8                  30          
1999-01-26 06   24.7   168.3                  25          
1999-01-26 12   24.7   168.8                  25          
1999-01-26 18   24.7   169.2                  25          
1999-01-27 00   24.7   169.5                  25          
1999-01-27 06   24.5   169.6                  25          
1999-01-27 12   24.3   169.6                  25          
1999-01-27 18   24.3   169.4                  25          
1999-01-28 00   24.4   169.2                  25          
1999-01-28 06   24.6   169.0                  25          
1999-01-28 12   24.9   168.9                  25          
1999-01-28 18   25.3   168.9                  25          
1999-01-29 00   25.9   168.8                  25          
Winds are 1-min average.

Tropical cyclone tracks developed by Michael Bath using data from the Joint Typhoon Warning Centre Best Tracks and Google Maps.


[Australian Severe Weather index] [Copyright Notice] [Email Contacts] [Search This Site] [Privacy Policy]
Document: tropical_cyclone_pete.htm Updated: 18 September 2016